Lakemoor, Illinois
Current Conditions -  °F | °C
As of 1:55 PM on Sunday 25 Jan 2015 (Local Time) from KUGN Reporting Station
Overcast Overcast  
Wind Chill: 13°   Ceiling: 2500
Heat Index: 26°   Visibility: 10mi
Dew Point: 17°   Wind: 17mph
Humidity: 69%   Direction: 30°NNE
Pressure: 29.87"   Gusts: 29mph
Location:  42.338°N, 88.2857°W
Report Text: KUGN 251955Z 03015G25KT 10SM OVC025 M03/M08 A2987 RMK AO2 PK WND 03026/1906 SLP129 T10331083
Loading
Personal Weather Stations






























Interactive Weather Map New forecast layout! Learn more

10-Day Weather Forecast

Advertisements
Track Severe Weather on mobile